Time;durP1;ratioP1;P1;durP2;ratioP2;P2;SDS_P1;SDS_P2;PMS_P1;PMS_P2;Temp;Humidity;BMP_temperature;BMP_pressure;BME280_temperature;BME280_humidity;BME280_pressure;Samples;Min_cycle;Max_cycle;Signal;HPM_P1;HPM_P2
2022/03/20 00:00:05;;;;;;;25.33;10.55;;;;;;;;;;5095881;28;20095;-44
2022/03/20 00:02:32;;;;;;;29.17;11.32;;;;;;;;;;5095899;28;20016;-44
2022/03/20 00:04:58;;;;;;;23.92;10.27;;;;;;;;;;5077560;28;20026;-43
2022/03/20 00:07:24;;;;;;;29.95;11.35;;;;;;;;;;5095898;28;20073;-45
2022/03/20 00:09:52;;;;;;;30.50;11.50;;;;;;;;;;5095902;28;20455;-42
2022/03/20 00:12:17;;;;;;;25.33;9.57;;;;;;;;;;5095711;28;20035;-43
2022/03/20 00:14:42;;;;;;;19.17;9.32;;;;;;;;;;5095651;28;20023;-41
2022/03/20 00:17:08;;;;;;;22.38;9.50;;;;;;;;;;5095520;28;20107;-41
2022/03/20 00:19:33;;;;;;;21.92;9.65;;;;;;;;;;5095355;28;20467;-41
2022/03/20 00:21:59;;;;;;;17.75;8.85;;;;;;;;;;5095744;28;20020;-41
2022/03/20 00:24:24;;;;;;;35.20;13.68;;;;;;;;;;5095647;28;20051;-41
2022/03/20 00:26:56;;;;;;;21.00;9.52;;;;;;;;;;5095235;28;20514;-41
2022/03/20 00:29:22;;;;;;;21.92;8.90;;;;;;;;;;5095261;28;20024;-41
2022/03/20 00:31:47;;;;;;;22.58;9.27;;;;;;;;;;5095259;28;20185;-41
2022/03/20 00:34:12;;;;;;;25.73;10.73;;;;;;;;;;5094890;28;20052;-41
2022/03/20 00:36:37;;;;;;;21.10;10.07;;;;;;;;;;5095316;28;20020;-41
2022/03/20 00:39:03;;;;;;;28.58;9.48;;;;;;;;;;5095338;28;20138;-42
2022/03/20 00:41:28;;;;;;;22.13;9.35;;;;;;;;;;5060449;28;20020;-41
2022/03/20 00:43:53;;;;;;;24.17;11.20;;;;;;;;;;5095524;28;20085;-42
2022/03/20 00:46:19;;;;;;;22.75;10.23;;;;;;;;;;5094955;28;20020;-41
2022/03/20 00:48:44;;;;;;;25.83;11.48;;;;;;;;;;5095245;28;20028;-41
2022/03/20 00:51:13;;;;;;;22.58;10.55;;;;;;;;;;5095117;28;20423;-41
2022/03/20 00:53:39;;;;;;;21.00;9.90;;;;;;;;;;5094562;28;20017;-40
2022/03/20 00:56:04;;;;;;;29.88;11.65;;;;;;;;;;5094834;28;20012;-41
2022/03/20 00:58:29;;;;;;;23.63;11.60;;;;;;;;;;5094791;28;20071;-40
2022/03/20 01:00:55;;;;;;;24.17;11.07;;;;;;;;;;5094626;28;20030;-41
2022/03/20 01:03:20;;;;;;;27.20;11.18;;;;;;;;;;5094506;28;20022;-42
2022/03/20 01:05:45;;;;;;;24.17;11.23;;;;;;;;;;5076651;28;20027;-41
2022/03/20 01:08:11;;;;;;;20.80;11.13;;;;;;;;;;5094559;28;20016;-41
2022/03/20 01:10:36;;;;;;;24.88;11.55;;;;;;;;;;5094491;28;20020;-41
2022/03/20 01:13:01;;;;;;;26.00;12.07;;;;;;;;;;5094575;28;20026;-41
2022/03/20 01:15:27;;;;;;;29.33;11.65;;;;;;;;;;5076195;28;20026;-41
2022/03/20 01:17:52;;;;;;;25.00;11.88;;;;;;;;;;5094404;28;20047;-42
2022/03/20 01:20:17;;;;;;;26.95;12.23;;;;;;;;;;5094385;28;20031;-41
2022/03/20 01:22:43;;;;;;;26.50;12.20;;;;;;;;;;5094371;28;20027;-41
2022/03/20 01:25:08;;;;;;;28.05;11.52;;;;;;;;;;5094306;28;20027;-41
2022/03/20 01:27:34;;;;;;;23.40;11.60;;;;;;;;;;5094222;28;20024;-41
2022/03/20 01:29:59;;;;;;;28.67;13.32;;;;;;;;;;5094122;28;20024;-41
2022/03/20 01:32:26;;;;;;;24.63;12.88;;;;;;;;;;5093930;28;20051;-41
2022/03/20 01:34:52;;;;;;;24.92;13.07;;;;;;;;;;5093914;28;20024;-40
2022/03/20 01:37:17;;;;;;;31.27;12.68;;;;;;;;;;5094122;28;20043;-41
2022/03/20 01:39:43;;;;;;;24.48;11.95;;;;;;;;;;5094096;28;20020;-42
2022/03/20 01:42:08;;;;;;;26.15;13.13;;;;;;;;;;5093960;28;20024;-41
2022/03/20 01:44:34;;;;;;;28.13;12.88;;;;;;;;;;5093953;28;20016;-40
2022/03/20 01:47:00;;;;;;;24.73;12.75;;;;;;;;;;5093517;28;20071;-41
2022/03/20 01:49:26;;;;;;;24.98;12.40;;;;;;;;;;5093683;28;20024;-41
2022/03/20 01:54:35;;;;;;;28.55;13.10;;;;;;;;;;5093925;28;20031;-40
2022/03/20 01:57:00;;;;;;;30.90;13.05;;;;;;;;;;5093571;28;20032;-41
2022/03/20 01:59:25;;;;;;;30.63;12.82;;;;;;;;;;5093675;28;20038;-41
2022/03/20 02:01:51;;;;;;;29.05;13.45;;;;;;;;;;5093452;28;20370;-41
2022/03/20 02:04:16;;;;;;;28.00;12.70;;;;;;;;;;5092667;28;20085;-40
2022/03/20 02:06:44;;;;;;;26.17;12.88;;;;;;;;;;5093556;28;20020;-41
2022/03/20 02:09:10;;;;;;;26.92;12.10;;;;;;;;;;5093816;28;20050;-40
2022/03/20 02:11:35;;;;;;;28.85;12.25;;;;;;;;;;5093324;28;20065;-40
2022/03/20 02:14:01;;;;;;;27.45;12.50;;;;;;;;;;5093337;28;20348;-40
2022/03/20 02:16:26;;;;;;;29.60;13.50;;;;;;;;;;5093246;28;20024;-42
2022/03/20 02:18:52;;;;;;;28.75;12.57;;;;;;;;;;5093220;28;20016;-40
2022/03/20 02:21:34;;;;;;;26.77;14.75;;;;;;;;;;5093597;28;20016;-40
2022/03/20 02:24:00;;;;;;;24.95;12.68;;;;;;;;;;5092979;28;20097;-40
2022/03/20 02:26:26;;;;;;;34.13;13.07;;;;;;;;;;5074614;28;20024;-40
2022/03/20 02:28:51;;;;;;;32.33;12.43;;;;;;;;;;5093212;28;20080;-40
2022/03/20 02:31:16;;;;;;;27.33;11.63;;;;;;;;;;5093049;28;20023;-40
2022/03/20 02:33:42;;;;;;;26.98;13.15;;;;;;;;;;5093261;28;20491;-40
2022/03/20 02:36:07;;;;;;;25.88;12.20;;;;;;;;;;5093256;28;20019;-40
2022/03/20 02:38:34;;;;;;;32.13;14.65;;;;;;;;;;5093004;28;20067;-40
2022/03/20 02:41:14;;;;;;;31.30;14.80;;;;;;;;;;5092939;28;20091;-40
2022/03/20 02:43:47;;;;;;;29.92;15.13;;;;;;;;;;5074820;28;20382;-40
2022/03/20 02:46:12;;;;;;;25.20;12.82;;;;;;;;;;5093183;28;20028;-40
2022/03/20 02:48:39;;;;;;;31.23;13.60;;;;;;;;;;5093139;28;20020;-40
2022/03/20 02:51:04;;;;;;;25.52;12.68;;;;;;;;;;5093169;28;20364;-40
2022/03/20 02:53:29;;;;;;;26.15;13.25;;;;;;;;;;5093101;28;20020;-40
2022/03/20 02:55:54;;;;;;;27.77;12.95;;;;;;;;;;5092729;28;20099;-40
2022/03/20 02:58:20;;;;;;;25.50;12.90;;;;;;;;;;5074646;28;20028;-40
2022/03/20 03:00:45;;;;;;;22.30;12.73;;;;;;;;;;5092784;28;20420;-39
2022/03/20 03:03:11;;;;;;;24.50;12.18;;;;;;;;;;5092921;28;20024;-40
2022/03/20 03:05:37;;;;;;;25.25;12.40;;;;;;;;;;5092859;28;20012;-40
2022/03/20 03:10:56;;;;;;;25.65;13.00;;;;;;;;;;5092692;28;20023;-40
2022/03/20 03:13:25;;;;;;;29.95;12.57;;;;;;;;;;5092876;28;20103;-40
2022/03/20 03:15:51;;;;;;;;;;;;;;;;;;5095180;28;20055;-40
2022/03/20 03:18:16;;;;;;;29.65;12.93;;;;;;;;;;5096602;28;19966;-41
2022/03/20 03:20:41;;;;;;;27.63;13.60;;;;;;;;;;5096794;28;20020;-40
2022/03/20 03:23:06;;;;;;;29.92;12.60;;;;;;;;;;5078394;28;20107;-41
2022/03/20 03:25:32;;;;;;;25.67;13.30;;;;;;;;;;5096480;28;20023;-41
2022/03/20 03:27:59;;;;;;;30.42;12.88;;;;;;;;;;5096751;28;20020;-41
2022/03/20 03:30:25;;;;;;;28.70;12.23;;;;;;;;;;5096400;28;20584;-40
2022/03/20 03:32:51;;;;;;;30.63;12.20;;;;;;;;;;5080303;28;20411;-41
2022/03/20 03:38:00;;;;;;;22.85;11.85;;;;;;;;;;5096150;28;20039;-42
2022/03/20 03:40:26;;;;;;;31.15;12.13;;;;;;;;;;5096270;28;20024;-40
2022/03/20 03:42:51;;;;;;;20.42;10.63;;;;;;;;;;5096473;28;20020;-41
2022/03/20 03:45:16;;;;;;;22.08;9.65;;;;;;;;;;5096392;28;20097;-41
2022/03/20 03:47:42;;;;;;;23.23;11.00;;;;;;;;;;5096323;28;20095;-42
2022/03/20 03:50:08;;;;;;;24.17;11.38;;;;;;;;;;5096067;28;20016;-41
2022/03/20 03:52:33;;;;;;;25.25;11.68;;;;;;;;;;5095933;28;20023;-41
2022/03/20 03:54:58;;;;;;;27.38;11.27;;;;;;;;;;5096129;28;20047;-41
2022/03/20 03:57:24;;;;;;;26.67;11.65;;;;;;;;;;5096107;28;20370;-43
2022/03/20 03:59:49;;;;;;;23.15;11.43;;;;;;;;;;5096028;28;20111;-41
2022/03/20 04:02:14;;;;;;;23.70;10.48;;;;;;;;;;5096082;28;20023;-41
2022/03/20 04:04:41;;;;;;;24.27;11.15;;;;;;;;;;5095910;28;20519;-41
2022/03/20 04:07:07;;;;;;;25.13;12.60;;;;;;;;;;5095856;28;20072;-41
2022/03/20 04:09:32;;;;;;;27.55;12.18;;;;;;;;;;5094337;28;20112;-43
2022/03/20 04:11:57;;;;;;;25.10;11.25;;;;;;;;;;5096111;28;20028;-41
2022/03/20 04:14:22;;;;;;;24.33;10.82;;;;;;;;;;5095826;28;20020;-41
2022/03/20 04:16:49;;;;;;;25.77;11.35;;;;;;;;;;5095703;28;20475;-41
2022/03/20 04:19:14;;;;;;;22.70;10.60;;;;;;;;;;5095780;28;20031;-41
2022/03/20 04:21:39;;;;;;;23.27;10.50;;;;;;;;;;5095504;28;20020;-41
2022/03/20 04:24:05;;;;;;;25.30;11.68;;;;;;;;;;5095307;28;20105;-41
2022/03/20 04:26:33;;;;;;;22.83;10.98;;;;;;;;;;5095276;28;20432;-41
2022/03/20 04:28:58;;;;;;;23.55;11.45;;;;;;;;;;5095181;28;20047;-41
2022/03/20 04:31:23;;;;;;;20.63;10.75;;;;;;;;;;5095278;28;20535;-41
2022/03/20 04:33:50;;;;;;;22.27;10.88;;;;;;;;;;5095356;28;20462;-41
2022/03/20 04:36:21;;;;;;;27.27;10.40;;;;;;;;;;5095401;28;20020;-41
2022/03/20 04:38:47;;;;;;;18.95;10.02;;;;;;;;;;5094925;28;20038;-41
2022/03/20 04:41:12;;;;;;;21.50;10.98;;;;;;;;;;5095297;28;20024;-41
2022/03/20 04:43:37;;;;;;;22.23;10.18;;;;;;;;;;5095126;28;20020;-41
2022/03/20 04:46:02;;;;;;;20.60;10.23;;;;;;;;;;5095098;28;20020;-41
2022/03/20 04:59:24;;;;;;;27.38;11.27;;;;;;;;;;5094834;28;20098;-42
2022/03/20 05:01:49;;;;;;;18.58;9.77;;;;;;;;;;5076438;28;20024;-44
2022/03/20 05:04:15;;;;;;;22.50;10.30;;;;;;;;;;5094916;28;20036;-44
2022/03/20 05:06:40;;;;;;;21.05;10.43;;;;;;;;;;5094733;28;20023;-43
2022/03/20 05:14:33;;;;;;;20.63;10.38;;;;;;;;;;5094641;28;20034;-42
2022/03/20 05:16:59;;;;;;;21.95;9.95;;;;;;;;;;5076318;28;20024;-41
2022/03/20 05:19:24;;;;;;;18.75;9.32;;;;;;;;;;5094459;28;20024;-41
2022/03/20 05:21:49;;;;;;;19.90;9.85;;;;;;;;;;5094699;28;20028;-42
2022/03/20 05:24:15;;;;;;;17.40;9.68;;;;;;;;;;5094315;28;20028;-42
2022/03/20 05:26:40;;;;;;;19.98;9.60;;;;;;;;;;5094166;28;20475;-41
2022/03/20 05:29:05;;;;;;;17.63;10.45;;;;;;;;;;5094056;28;20024;-41
2022/03/20 05:31:31;;;;;;;18.95;10.25;;;;;;;;;;5094351;28;20019;-41
2022/03/20 05:33:56;;;;;;;22.17;9.75;;;;;;;;;;5087154;28;20135;-41
2022/03/20 05:36:22;;;;;;;20.27;10.50;;;;;;;;;;5094220;28;20371;-41
2022/03/20 05:38:47;;;;;;;26.98;10.35;;;;;;;;;;5093945;28;20437;-41
2022/03/20 05:43:56;;;;;;;22.92;10.75;;;;;;;;;;5093861;28;20031;-41
2022/03/20 05:46:21;;;;;;;21.05;10.65;;;;;;;;;;5092767;28;20020;-41
2022/03/20 05:48:47;;;;;;;22.20;10.13;;;;;;;;;;5093785;28;20019;-41
2022/03/20 05:51:15;;;;;;;19.75;10.27;;;;;;;;;;5093947;28;20016;-40
2022/03/20 05:53:40;;;;;;;20.95;10.93;;;;;;;;;;5093783;28;20031;-41
2022/03/20 05:58:49;;;;;;;18.67;10.07;;;;;;;;;;5093583;28;20080;-41
2022/03/20 06:01:15;;;;;;;24.70;11.15;;;;;;;;;;5093577;28;20031;-41
2022/03/20 06:03:41;;;;;;;19.98;10.38;;;;;;;;;;5092557;28;20027;-41
2022/03/20 06:06:07;;;;;;;19.17;10.23;;;;;;;;;;5093613;28;20055;-40
2022/03/20 06:08:33;;;;;;;17.88;10.07;;;;;;;;;;5092618;28;20379;-42
2022/03/20 06:10:58;;;;;;;24.05;10.00;;;;;;;;;;5093548;28;20020;-41
2022/03/20 06:13:24;;;;;;;16.65;9.40;;;;;;;;;;5093681;28;20042;-40
2022/03/20 06:15:49;;;;;;;18.83;9.48;;;;;;;;;;5093294;28;20478;-41
2022/03/20 06:18:14;;;;;;;19.58;10.20;;;;;;;;;;5093398;28;20082;-41
2022/03/20 06:20:40;;;;;;;19.20;11.15;;;;;;;;;;5093532;28;20023;-40
2022/03/20 06:23:05;;;;;;;19.35;10.82;;;;;;;;;;5093522;28;20027;-40
2022/03/20 06:25:30;;;;;;;17.27;10.13;;;;;;;;;;5093074;28;20157;-40
2022/03/20 06:27:58;;;;;;;20.85;10.23;;;;;;;;;;5093352;28;20017;-40
2022/03/20 06:30:25;;;;;;;18.05;9.52;;;;;;;;;;5092834;28;20390;-41
2022/03/20 06:32:50;;;;;;;21.05;9.65;;;;;;;;;;5091422;28;20040;-41
2022/03/20 06:35:18;;;;;;;17.58;9.18;;;;;;;;;;5093168;28;20360;-41
2022/03/20 06:37:44;;;;;;;19.42;9.25;;;;;;;;;;5074814;28;20055;-41
2022/03/20 06:40:10;;;;;;;20.55;9.55;;;;;;;;;;5092962;28;20099;-40
2022/03/20 06:42:36;;;;;;;17.13;9.45;;;;;;;;;;5093180;28;20043;-40
2022/03/20 06:45:01;;;;;;;17.02;9.10;;;;;;;;;;5093089;28;20059;-40
2022/03/20 06:47:27;;;;;;;16.30;8.65;;;;;;;;;;5092738;28;20103;-40
2022/03/20 06:49:53;;;;;;;18.13;9.27;;;;;;;;;;5092472;28;20024;-41
2022/03/20 06:52:20;;;;;;;16.58;9.40;;;;;;;;;;5092940;28;20020;-42
2022/03/20 06:54:46;;;;;;;18.00;8.77;;;;;;;;;;5092826;28;20024;-40
2022/03/20 06:57:11;;;;;;;14.40;8.43;;;;;;;;;;5092869;28;20035;-41
2022/03/20 06:59:36;;;;;;;15.60;8.70;;;;;;;;;;5093002;28;20494;-41
2022/03/20 07:02:01;;;;;;;19.55;8.55;;;;;;;;;;5092964;28;20016;-41
2022/03/20 07:04:27;;;;;;;12.68;7.43;;;;;;;;;;5092854;28;20166;-41
2022/03/20 07:06:52;;;;;;;15.05;8.05;;;;;;;;;;5092808;28;20016;-41
2022/03/20 07:09:17;;;;;;;18.00;8.25;;;;;;;;;;5092609;28;20020;-41
2022/03/20 07:11:42;;;;;;;17.58;7.10;;;;;;;;;;5074695;28;20016;-40
2022/03/20 07:14:08;;;;;;;13.20;7.55;;;;;;;;;;5092947;28;20467;-40
2022/03/20 07:16:33;;;;;;;17.13;8.15;;;;;;;;;;5092758;28;20027;-41
2022/03/20 07:18:59;;;;;;;13.55;8.00;;;;;;;;;;5092704;28;20031;-40
2022/03/20 07:21:24;;;;;;;15.85;7.95;;;;;;;;;;5092731;28;20113;-40
2022/03/20 07:23:52;;;;;;;17.23;8.65;;;;;;;;;;5092463;28;20016;-40
2022/03/20 07:31:45;;;;;;;16.50;8.77;;;;;;;;;;5092578;28;20026;-40
2022/03/20 07:34:10;;;;;;;19.73;8.90;;;;;;;;;;5092859;28;20457;-41
2022/03/20 07:36:36;;;;;;;20.73;8.82;;;;;;;;;;5092761;28;20020;-40
2022/03/20 07:39:01;;;;;;;21.92;8.30;;;;;;;;;;5092642;28;20099;-41
2022/03/20 07:41:26;;;;;;;19.98;8.27;;;;;;;;;;5092521;28;20085;-41
2022/03/20 07:43:51;;;;;;;15.48;7.50;;;;;;;;;;5092533;28;20031;-41
2022/03/20 07:46:17;;;;;;;19.10;7.78;;;;;;;;;;5092343;28;20496;-41
2022/03/20 07:48:42;;;;;;;15.52;7.15;;;;;;;;;;5092467;28;20020;-41
2022/03/20 07:51:08;;;;;;;14.88;7.35;;;;;;;;;;5074134;28;20059;-42
2022/03/20 07:53:33;;;;;;;9.45;6.30;;;;;;;;;;5092594;28;20455;-41
2022/03/20 07:55:58;;;;;;;11.68;6.55;;;;;;;;;;5092597;28;20077;-41
2022/03/20 07:58:24;;;;;;;13.20;6.40;;;;;;;;;;5074163;28;20062;-41
2022/03/20 08:00:49;;;;;;;14.98;7.40;;;;;;;;;;5074180;28;20020;-40
2022/03/20 08:03:15;;;;;;;10.77;6.75;;;;;;;;;;5094370;28;20157;-41
2022/03/20 08:05:40;;;;;;;12.63;6.07;;;;;;;;;;5095742;28;20020;-41
2022/03/20 08:08:06;;;;;;;13.27;7.55;;;;;;;;;;5096025;28;20028;-41
2022/03/20 08:10:32;;;;;;;16.65;6.93;;;;;;;;;;5096039;28;20450;-41
2022/03/20 08:12:57;;;;;;;20.27;6.63;;;;;;;;;;5095883;28;20020;-41
2022/03/20 08:15:25;;;;;;;20.38;8.52;;;;;;;;;;5095839;28;20111;-41
2022/03/20 08:17:50;;;;;;;12.88;7.47;;;;;;;;;;5095576;28;20028;-41
2022/03/20 08:20:16;;;;;;;19.40;7.40;;;;;;;;;;5095534;28;20020;-41
2022/03/20 08:22:42;;;;;;;14.93;6.78;;;;;;;;;;5095413;28;20020;-41
2022/03/20 08:25:10;;;;;;;17.75;6.82;;;;;;;;;;5095791;28;20012;-41
2022/03/20 08:27:45;;;;;;;17.88;7.57;;;;;;;;;;5095510;28;20016;-41
2022/03/20 08:30:12;;;;;;;13.45;7.35;;;;;;;;;;5095513;28;20058;-41
2022/03/20 08:32:38;;;;;;;14.13;6.97;;;;;;;;;;5077252;28;20036;-39
2022/03/20 08:35:04;;;;;;;11.95;6.82;;;;;;;;;;5094951;28;20130;-41
2022/03/20 08:37:31;;;;;;;9.98;6.82;;;;;;;;;;5095210;28;20471;-41
2022/03/20 08:39:57;;;;;;;15.18;7.18;;;;;;;;;;5076975;28;20077;-41
2022/03/20 08:42:22;;;;;;;13.35;7.35;;;;;;;;;;5095287;28;20028;-41
2022/03/20 08:44:50;;;;;;;14.32;7.57;;;;;;;;;;5095169;28;20019;-41
2022/03/20 08:47:16;;;;;;;12.40;7.43;;;;;;;;;;5076822;28;20481;-40
2022/03/20 08:49:42;;;;;;;12.05;7.82;;;;;;;;;;5076614;28;20024;-40
2022/03/20 08:52:07;;;;;;;13.25;7.47;;;;;;;;;;5095176;28;20176;-39
2022/03/20 08:54:33;;;;;;;15.93;7.15;;;;;;;;;;5095020;28;20020;-40
2022/03/20 08:56:58;;;;;;;13.95;7.15;;;;;;;;;;5094824;28;20032;-40
2022/03/20 08:59:23;;;;;;;11.95;7.78;;;;;;;;;;5095523;28;20027;-40
2022/03/20 09:01:48;;;;;;;16.65;6.85;;;;;;;;;;5094793;28;20016;-40
2022/03/20 09:04:14;;;;;;;14.15;7.97;;;;;;;;;;5094505;28;20467;-41
2022/03/20 09:06:43;;;;;;;19.30;9.15;;;;;;;;;;5094567;28;20028;-41
2022/03/20 09:09:08;;;;;;;12.27;7.47;;;;;;;;;;5094555;28;20065;-41
2022/03/20 09:11:33;;;;;;;14.43;8.77;;;;;;;;;;5094978;28;20028;-41
2022/03/20 09:13:59;;;;;;;19.10;7.65;;;;;;;;;;5094284;28;20420;-41
2022/03/20 09:19:08;;;;;;;11.80;6.90;;;;;;;;;;5094793;28;20097;-41
2022/03/20 09:21:35;;;;;;;12.75;7.88;;;;;;;;;;5076388;28;20413;-41
2022/03/20 09:24:01;;;;;;;12.50;7.10;;;;;;;;;;5076115;28;20028;-41
2022/03/20 09:26:27;;;;;;;57.25;16.30;;;;;;;;;;5094254;28;20031;-41
2022/03/20 09:28:53;;;;;;;26.65;11.32;;;;;;;;;;5094295;28;20016;-41
2022/03/20 09:31:22;;;;;;;15.65;7.68;;;;;;;;;;5094171;28;20499;-42
2022/03/20 09:33:47;;;;;;;15.65;9.32;;;;;;;;;;5094033;28;20474;-43
2022/03/20 09:36:12;;;;;;;13.95;8.65;;;;;;;;;;5094039;28;20174;-41
2022/03/20 09:38:38;;;;;;;12.38;7.32;;;;;;;;;;5094264;28;20043;-41
2022/03/20 09:41:07;;;;;;;12.68;7.43;;;;;;;;;;5094425;28;20034;-41
2022/03/20 09:43:33;;;;;;;11.15;6.97;;;;;;;;;;5093911;28;20020;-41
2022/03/20 09:45:58;;;;;;;12.48;6.88;;;;;;;;;;5094362;28;20029;-41
2022/03/20 09:48:25;;;;;;;12.63;7.75;;;;;;;;;;5075517;28;20473;-41
2022/03/20 09:50:51;;;;;;;10.85;6.88;;;;;;;;;;5093913;28;20095;-41
2022/03/20 09:53:16;;;;;;;19.20;9.10;;;;;;;;;;5075666;28;20114;-41
2022/03/20 09:55:43;;;;;;;15.35;7.68;;;;;;;;;;5093879;28;20016;-40
2022/03/20 09:58:09;;;;;;;11.00;7.03;;;;;;;;;;5093837;28;20028;-40
2022/03/20 10:00:34;;;;;;;15.82;8.02;;;;;;;;;;5093460;28;20020;-42
2022/03/20 10:03:13;;;;;;;12.45;8.00;;;;;;;;;;5093521;28;20099;-41
2022/03/20 10:05:38;;;;;;;9.80;6.47;;;;;;;;;;5094021;28;20024;-40
2022/03/20 10:08:16;;;;;;;9.38;6.22;;;;;;;;;;5093504;28;20020;-40
2022/03/20 10:10:41;;;;;;;9.18;5.85;;;;;;;;;;5093602;28;20356;-41
2022/03/20 10:13:11;;;;;;;8.93;6.10;;;;;;;;;;5093293;28;20073;-41
2022/03/20 10:15:38;;;;;;;9.57;5.75;;;;;;;;;;5093495;28;20028;-41
2022/03/20 10:18:07;;;;;;;9.68;6.40;;;;;;;;;;5093471;28;20123;-42
2022/03/20 10:20:32;;;;;;;;;;;;;;;;;;5093883;28;20019;-41
2022/03/20 10:22:58;;;;;;;13.35;6.32;;;;;;;;;;5093284;28;19904;-41
2022/03/20 10:25:24;;;;;;;11.52;7.25;;;;;;;;;;5092433;28;20378;-42
2022/03/20 10:27:57;;;;;;;7.90;5.40;;;;;;;;;;5093084;28;20016;-41
2022/03/20 10:30:23;;;;;;;11.23;6.47;;;;;;;;;;5093339;28;20481;-41
2022/03/20 10:32:49;;;;;;;10.20;6.47;;;;;;;;;;5092924;28;20020;-40
2022/03/20 10:35:14;;;;;;;11.05;7.00;;;;;;;;;;5093265;28;20016;-40
2022/03/20 10:37:44;;;;;;;11.55;6.55;;;;;;;;;;5092818;28;20032;-40
2022/03/20 10:40:11;;;;;;;9.50;6.55;;;;;;;;;;5092948;28;20024;-40
2022/03/20 10:42:36;;;;;;;10.82;6.22;;;;;;;;;;5092642;28;20024;-40
2022/03/20 10:45:03;;;;;;;12.18;6.10;;;;;;;;;;5093107;28;20028;-41
2022/03/20 10:47:28;;;;;;;12.25;6.68;;;;;;;;;;5093017;28;20043;-41
2022/03/20 10:50:02;;;;;;;8.73;6.22;;;;;;;;;;5093082;28;20079;-41
2022/03/20 10:52:29;;;;;;;12.90;6.20;;;;;;;;;;5092896;28;20024;-42
2022/03/20 10:54:55;;;;;;;11.00;6.35;;;;;;;;;;5092897;28;20048;-41
2022/03/20 10:57:20;;;;;;;9.10;6.38;;;;;;;;;;5092640;28;20078;-43
2022/03/20 10:59:59;;;;;;;11.35;6.47;;;;;;;;;;5074857;28;20058;-42
2022/03/20 11:02:24;;;;;;;9.93;6.22;;;;;;;;;;5093066;28;20077;-42
2022/03/20 11:04:50;;;;;;;9.85;6.20;;;;;;;;;;5092855;28;20028;-41
2022/03/20 11:07:16;;;;;;;7.28;5.28;;;;;;;;;;5092825;28;20020;-41
2022/03/20 11:09:51;;;;;;;10.02;6.47;;;;;;;;;;5092654;28;20023;-40
2022/03/20 11:12:21;;;;;;;8.90;5.55;;;;;;;;;;5093132;28;20027;-41
2022/03/20 11:14:47;;;;;;;10.55;5.32;;;;;;;;;;5092922;28;20020;-42
2022/03/20 11:17:14;;;;;;;13.10;5.80;;;;;;;;;;5092730;28;20043;-41
2022/03/20 11:19:43;;;;;;;7.78;5.40;;;;;;;;;;5092613;28;20428;-41
2022/03/20 11:22:09;;;;;;;10.03;6.37;;;;;;;;;;5092459;28;20447;-42
2022/03/20 11:24:35;;;;;;;8.52;5.68;;;;;;;;;;5092637;28;20279;-42
2022/03/20 11:27:03;;;;;;;10.38;6.03;;;;;;;;;;5092730;28;20025;-42
2022/03/20 11:29:30;;;;;;;10.20;6.63;;;;;;;;;;5092690;28;20169;-43
2022/03/20 11:31:56;;;;;;;12.00;5.47;;;;;;;;;;5092691;28;20051;-45
2022/03/20 11:34:24;;;;;;;11.00;6.65;;;;;;;;;;5092811;28;20078;-41
2022/03/20 11:37:01;;;;;;;8.02;5.15;;;;;;;;;;5093799;28;20047;-41
2022/03/20 11:39:27;;;;;;;9.02;5.35;;;;;;;;;;5096606;28;20111;-40
2022/03/20 11:42:11;;;;;;;11.95;5.30;;;;;;;;;;5078103;28;20099;-41
2022/03/20 11:44:49;;;;;;;9.02;5.53;;;;;;;;;;5096175;28;20024;-41
2022/03/20 11:47:14;;;;;;;10.05;5.97;;;;;;;;;;5096050;28;20020;-42
2022/03/20 11:49:40;;;;;;;7.77;4.90;;;;;;;;;;5096100;28;20020;-41
2022/03/20 11:52:06;;;;;;;12.13;5.68;;;;;;;;;;5096372;28;20241;-42
2022/03/20 11:54:49;;;;;;;9.98;5.57;;;;;;;;;;5096279;28;20015;-41
2022/03/20 11:57:23;;;;;;;13.27;6.68;;;;;;;;;;5095949;28;20040;-41
2022/03/20 11:59:49;;;;;;;8.68;5.50;;;;;;;;;;5095861;28;20374;-41
2022/03/20 12:02:16;;;;;;;10.55;5.88;;;;;;;;;;5096130;28;20095;-41
2022/03/20 12:04:58;;;;;;;7.65;5.40;;;;;;;;;;5096128;28;20066;-41
2022/03/20 12:07:28;;;;;;;9.32;6.00;;;;;;;;;;5096023;28;20103;-41
2022/03/20 12:09:56;;;;;;;10.95;6.72;;;;;;;;;;5077729;28;20374;-41
2022/03/20 12:12:37;;;;;;;16.25;7.60;;;;;;;;;;5095566;28;20028;-41
2022/03/20 12:15:04;;;;;;;;;;;;;;;;;;5096309;28;20031;-41
2022/03/20 12:17:49;;;;;;;9.95;5.25;;;;;;;;;;5077690;28;19916;-41
2022/03/20 12:20:35;;;;;;;10.80;5.93;;;;;;;;;;5095600;28;20168;-42
2022/03/20 12:23:19;;;;;;;11.40;5.93;;;;;;;;;;5076954;28;20501;-42
2022/03/20 12:25:44;;;;;;;11.75;5.68;;;;;;;;;;5095546;28;20024;-40
2022/03/20 12:28:26;;;;;;;11.18;6.50;;;;;;;;;;5095547;28;20081;-41
2022/03/20 12:30:52;;;;;;;9.95;5.63;;;;;;;;;;5095523;28;20016;-40
2022/03/20 12:33:24;;;;;;;17.10;6.45;;;;;;;;;;5094949;28;20052;-40
2022/03/20 12:35:50;;;;;;;17.92;8.73;;;;;;;;;;5077266;28;20385;-41
2022/03/20 12:38:40;;;;;;;11.60;6.28;;;;;;;;;;5095223;28;20115;-41
2022/03/20 12:41:10;;;;;;;10.70;5.47;;;;;;;;;;5095134;28;20020;-41
2022/03/20 12:43:35;;;;;;;17.88;8.88;;;;;;;;;;5095085;28;20035;-41
2022/03/20 12:46:01;;;;;;;21.42;9.63;;;;;;;;;;5076757;28;20016;-41
2022/03/20 12:48:31;;;;;;;10.55;6.65;;;;;;;;;;5094270;28;20390;-41
2022/03/20 12:51:01;;;;;;;9.63;5.88;;;;;;;;;;5095228;28;20016;-41
2022/03/20 12:53:35;;;;;;;11.63;7.40;;;;;;;;;;5095003;28;20020;-41
2022/03/20 12:56:02;;;;;;;10.23;5.82;;;;;;;;;;5095017;28;20027;-41
2022/03/20 12:58:28;;;;;;;9.10;5.38;;;;;;;;;;5094774;28;20111;-41
2022/03/20 13:00:55;;;;;;;9.60;5.38;;;;;;;;;;5076757;28;20054;-41
2022/03/20 13:03:21;;;;;;;9.55;5.82;;;;;;;;;;5076645;28;20024;-42
2022/03/20 13:05:57;;;;;;;7.53;5.15;;;;;;;;;;5094777;28;20027;-41
2022/03/20 13:08:30;;;;;;;8.82;5.40;;;;;;;;;;5076940;28;20485;-40
2022/03/20 13:10:56;;;;;;;11.73;6.15;;;;;;;;;;5094493;28;20103;-42
2022/03/20 13:13:29;;;;;;;7.72;5.07;;;;;;;;;;5094652;28;20012;-41
2022/03/20 13:15:54;;;;;;;11.02;6.63;;;;;;;;;;5094609;28;20040;-41
2022/03/20 13:18:26;;;;;;;13.95;6.78;;;;;;;;;;5094511;28;20039;-41
2022/03/20 13:20:52;;;;;;;8.98;5.20;;;;;;;;;;5094479;28;20028;-42
2022/03/20 13:23:18;;;;;;;11.77;5.68;;;;;;;;;;5094480;28;20031;-42
2022/03/20 13:25:48;;;;;;;22.05;5.78;;;;;;;;;;5075932;28;20093;-42
2022/03/20 13:28:33;;;;;;;12.23;5.65;;;;;;;;;;5094445;28;20028;-41
2022/03/20 13:31:22;;;;;;;9.32;5.03;;;;;;;;;;5094507;28;20023;-41
2022/03/20 13:33:52;;;;;;;7.53;5.13;;;;;;;;;;5068564;28;20050;-41
2022/03/20 13:36:17;;;;;;;19.10;6.20;;;;;;;;;;5094570;28;20040;-41
2022/03/20 13:38:44;;;;;;;11.43;5.38;;;;;;;;;;5094122;28;20038;-40
2022/03/20 13:41:36;;;;;;;7.18;5.00;;;;;;;;;;5094193;28;20017;-41
2022/03/20 13:44:02;;;;;;;9.75;5.70;;;;;;;;;;5090855;28;20117;-40
2022/03/20 13:46:29;;;;;;;11.90;5.38;;;;;;;;;;5093830;28;20028;-41
2022/03/20 13:48:57;;;;;;;8.57;5.25;;;;;;;;;;5092598;28;20378;-41
2022/03/20 13:51:27;;;;;;;9.00;5.67;;;;;;;;;;5093865;28;20024;-41
2022/03/20 13:54:11;;;;;;;10.07;6.05;;;;;;;;;;5093968;28;20040;-41
2022/03/20 13:56:36;;;;;;;11.13;6.25;;;;;;;;;;5093870;28;20028;-41
2022/03/20 13:59:03;;;;;;;9.57;6.07;;;;;;;;;;5093406;28;20032;-41
2022/03/20 14:01:29;;;;;;;10.05;6.68;;;;;;;;;;5092623;28;20031;-40
2022/03/20 14:03:54;;;;;;;12.15;5.95;;;;;;;;;;5093768;28;20030;-41
2022/03/20 14:06:20;;;;;;;11.65;6.63;;;;;;;;;;5093771;28;20073;-41
2022/03/20 14:08:50;;;;;;;13.10;6.53;;;;;;;;;;5093656;28;20028;-41
2022/03/20 14:11:31;;;;;;;13.27;6.47;;;;;;;;;;5093572;28;20486;-41
2022/03/20 14:13:57;;;;;;;10.00;6.68;;;;;;;;;;5093367;28;20024;-41
2022/03/20 14:16:23;;;;;;;12.48;6.78;;;;;;;;;;5093331;28;20378;-42
2022/03/20 14:18:48;;;;;;;12.88;7.30;;;;;;;;;;5093486;28;20028;-42
2022/03/20 14:21:14;;;;;;;12.23;7.38;;;;;;;;;;5093403;28;20099;-42
2022/03/20 14:23:58;;;;;;;11.98;6.95;;;;;;;;;;5093464;28;20056;-41
2022/03/20 14:26:25;;;;;;;12.77;6.57;;;;;;;;;;5091816;28;20077;-41
2022/03/20 14:29:04;;;;;;;11.18;7.05;;;;;;;;;;5093349;28;20034;-41
2022/03/20 14:39:44;;;;;;;10.68;6.72;;;;;;;;;;5093170;28;20071;-40
2022/03/20 14:42:30;;;;;;;11.65;7.15;;;;;;;;;;5074885;28;20024;-41
2022/03/20 14:44:55;;;;;;;12.35;7.30;;;;;;;;;;5092253;28;20035;-41
2022/03/20 14:47:21;;;;;;;15.57;8.27;;;;;;;;;;5093451;28;20066;-41
2022/03/20 14:49:47;;;;;;;9.43;7.13;;;;;;;;;;5093165;28;20487;-41
2022/03/20 14:52:15;;;;;;;10.63;6.65;;;;;;;;;;5093118;28;20024;-41
2022/03/20 14:54:41;;;;;;;11.10;6.38;;;;;;;;;;5093027;28;20451;-41
2022/03/20 14:57:06;;;;;;;10.93;6.65;;;;;;;;;;5074666;28;20108;-41
2022/03/20 14:59:33;;;;;;;9.50;6.65;;;;;;;;;;5092733;28;20025;-41
2022/03/20 15:02:00;;;;;;;13.50;6.95;;;;;;;;;;5092994;28;20353;-41
2022/03/20 15:04:26;;;;;;;13.27;6.00;;;;;;;;;;5092792;28;20062;-40
2022/03/20 15:06:51;;;;;;;11.20;6.75;;;;;;;;;;5093123;28;20572;-41
2022/03/20 15:12:01;;;;;;;10.30;5.95;;;;;;;;;;5094892;28;20030;-42
2022/03/20 15:14:26;;;;;;;8.70;6.00;;;;;;;;;;5096708;28;20378;-41
2022/03/20 15:16:52;;;;;;;10.13;6.38;;;;;;;;;;5097024;28;20016;-41